deformed-offering

Current conditions - KSJC (San Jose International)


Coded METAR: 2017/10/18 12:43 KSJC 181243Z 24003KT 4SM BR BKN007 11/10 A3004 RMK AO2 T01110100

Weather Report

Report issued: Wed 18th Oct at 05:43 PDT

Wind: light air from West-Southwest (240 degrees) at 3 knots (3 mph, 6 kph, Force 1)
Visibility: 4 statute miles
Weather: mist
Cloud: broken at 700 feet
Temperature: 52F / 11C
Dewpoint: 50F / 10C
Humidity: 94%
Pressure: 30.04 inches of mercury

Current conditions - KNUQ (Moffett NAS)


Coded METAR: 2017/10/18 12:26 KNUQ 181226Z 00000KT 9SM FU BKN007 11/09 A3005 RMK AO2 T01110094

Weather Report

Report issued: Wed 18th Oct at 05:26 PDT

Wind: calm 0 knots (0 mph, 0 kph, Force 0)
Visibility: 9 statute miles
Weather: smoke
Cloud: broken at 700 feet
Temperature: 52F / 11C
Dewpoint: 48F / 9C
Humidity: 87%
Pressure: 30.05 inches of mercury

Current conditions - KRHV (Reid-Hillview Airport - San Jose)


Coded METAR: 2017/10/18 04:47 KRHV 180447Z VRB05KT 8SM SCT120 15/07 A3010 RMK LAST

Weather Report

Report issued: Wed 18th Oct at 21:47 PDT

Wind: variable light breeze at 5 knots (6 mph, 9 kph, Force 2)
Visibility: 8 statute miles
Cloud: scattered at 12000 feet
Temperature: 59F / 15C
Dewpoint: 45F / 7C
Humidity: 59%
Pressure: 30.10 inches of mercury

Current conditions - KPAO (Palo Alto Airport)


Coded METAR: 2017/10/18 03:47 KPAO 180347Z 32006KT 10SM FU SCT180 14/11 A3006 RMK LAST

Weather Report

Report issued: Wed 18th Oct at 20:47 PDT

Wind: light breeze from the Northwest (320 degrees) at 6 knots (7 mph, 11 kph, Force 2)
Visibility: 10 statute miles
Weather: smoke
Cloud: scattered at 18000 feet
Temperature: 57F / 14C
Dewpoint: 52F / 11C
Humidity: 82%
Pressure: 30.06 inches of mercury

 

deformed-offering